Riverside Airport

Jump to: basic info | weather | frequencies | runways | comments

Related pages: nearby airports | nearby navaids | notams | map

Basic information (top)

Codes: LLE FAMN
Location: lon -25.430000, lat 31.576700, elev 1,024 ft / 312 m msl
Status: medium_airport

Weather (top)

Current conditions for Kruger Mpumalanga International Airport 26nm (48km) W (rec'd 2014/09/03 01:00Z):

FAKN 030100Z AUTO 00000KT //// // ////// 13/10 Q1028

Airport forecast for Kruger Mpumalanga International Airport 26nm (48km) W (rec'd 2013/12/24 03:38Z):

TAF FAKN 240000Z 2403/2412 33006KT 8000 BKN010 
      TEMPO 2403/2406 4000 BCFG BKN006 
     FM240630 05005KT 9999 SCT015 
      BECMG 2409/2411 SCT030 TX28/2412ZTN17/2403Z

Frequencies (top)

Verify before use: may be inaccurate or out of date.

CTAF: 124.8 MHz (CTAF)

Runways (top)

09/27: 4,041 x 66 ft (1,232 x 20 m) — paved — lighted — threshold 27 displaced 760 ft (232 m)

Latest comments (top)

No comments yet for Riverside Airport

More... (top)

See also NOTAMs and nearby airports and navaids, or visit the Riverside Airport page at the main OurAirports website..